createdAt,value
2022-09-12T00:03:04.615Z,17.40
2022-09-12T00:08:07.502Z,17.40
2022-09-12T00:13:12.342Z,17.40
2022-09-12T00:18:17.529Z,17.40
2022-09-12T00:23:20.710Z,17.30
2022-09-12T00:28:24.987Z,17.20
2022-09-12T00:33:27.897Z,17.20
2022-09-12T00:38:30.772Z,17.20
2022-09-12T00:43:39.031Z,17.10
2022-09-12T00:48:48.361Z,17.00
2022-09-12T00:53:54.696Z,16.90
2022-09-12T00:59:03.354Z,16.80
2022-09-12T01:04:06.421Z,16.70
2022-09-12T01:09:10.620Z,16.60
2022-09-12T01:14:15.709Z,16.60
2022-09-12T01:19:38.015Z,16.50
2022-09-12T01:24:54.466Z,16.50
2022-09-12T01:30:23.672Z,16.50
2022-09-12T01:35:33.538Z,16.50
2022-09-12T01:40:49.069Z,16.40
2022-09-12T01:46:01.757Z,16.40
2022-09-12T01:51:11.275Z,16.30
2022-09-12T01:56:22.410Z,16.20
2022-09-12T02:01:29.556Z,16.20
2022-09-12T02:06:38.381Z,16.10
2022-09-12T02:11:44.513Z,16.00
2022-09-12T02:16:52.035Z,16.00
2022-09-12T02:21:59.513Z,15.90
2022-09-12T02:27:06.818Z,15.90
2022-09-12T02:32:17.042Z,15.90
2022-09-12T02:37:29.510Z,15.90
2022-09-12T02:42:32.433Z,15.80
2022-09-12T02:47:39.693Z,15.80
2022-09-12T02:52:45.031Z,15.80
2022-09-12T02:57:47.935Z,15.80
2022-09-12T03:03:09.347Z,15.70
2022-09-12T03:08:51.923Z,15.70
2022-09-12T03:14:07.198Z,15.70
2022-09-12T03:19:20.596Z,15.60
2022-09-12T03:24:31.220Z,15.50
2022-09-12T03:29:34.706Z,15.40
2022-09-12T03:34:37.636Z,15.40
2022-09-12T03:39:42.047Z,15.40
2022-09-12T03:44:45.021Z,15.30
2022-09-12T03:49:47.958Z,15.30
2022-09-12T03:54:52.252Z,15.30
2022-09-12T03:59:55.149Z,15.20
2022-09-12T04:04:58.036Z,15.30
2022-09-12T04:10:02.319Z,15.20
2022-09-12T04:15:07.264Z,15.20
2022-09-12T04:20:10.483Z,15.20
2022-09-12T04:25:15.307Z,15.10
2022-09-12T04:30:18.389Z,15.20
2022-09-12T04:35:21.317Z,15.20
2022-09-12T04:40:25.534Z,15.20
2022-09-12T04:45:28.600Z,15.10
2022-09-12T04:50:31.548Z,15.10
2022-09-12T04:55:36.818Z,15.10
2022-09-12T05:00:39.700Z,15.10
2022-09-12T05:05:42.592Z,15.00
2022-09-12T05:10:46.816Z,15.10
2022-09-12T05:15:56.111Z,15.10
2022-09-12T05:21:01.191Z,15.00
2022-09-12T05:26:07.161Z,15.10
2022-09-12T05:31:16.079Z,15.00
2022-09-12T05:36:21.377Z,15.00
2022-09-12T05:41:27.213Z,15.00
2022-09-12T05:46:31.389Z,15.00
2022-09-12T05:51:36.200Z,15.00
2022-09-12T05:56:41.841Z,14.90
2022-09-12T06:01:45.331Z,15.00
2022-09-12T06:06:48.797Z,15.00
2022-09-12T06:11:53.203Z,15.00
2022-09-12T06:16:56.310Z,14.90
2022-09-12T06:21:59.208Z,15.00
2022-09-12T06:27:03.465Z,15.00
2022-09-12T06:32:06.942Z,15.10
2022-09-12T06:37:09.867Z,15.20
2022-09-12T06:42:14.852Z,15.30
2022-09-12T06:47:25.997Z,15.40
2022-09-12T06:52:29.397Z,15.50
2022-09-12T06:57:36.345Z,15.60
2022-09-12T07:02:39.256Z,15.70
2022-09-12T07:07:42.154Z,15.80
2022-09-12T07:12:46.712Z,15.90
2022-09-12T07:17:49.561Z,16.00
2022-09-12T07:22:52.516Z,16.20
2022-09-12T07:27:56.725Z,16.40
2022-09-12T07:32:59.614Z,16.60
2022-09-12T07:38:02.967Z,16.90
2022-09-12T07:43:07.179Z,17.10
2022-09-12T07:48:10.227Z,17.30
2022-09-12T07:53:13.118Z,17.60
2022-09-12T07:58:17.344Z,17.80
2022-09-12T08:03:20.481Z,18.00
2022-09-12T08:08:23.330Z,18.30
2022-09-12T08:13:27.859Z,18.40
2022-09-12T08:18:32.661Z,18.60
2022-09-12T08:23:36.112Z,18.80
2022-09-12T08:28:41.297Z,19.00
2022-09-12T08:33:44.445Z,19.10
2022-09-12T08:38:48.731Z,19.30
2022-09-12T08:44:06.953Z,19.50
2022-09-12T08:49:13.723Z,19.80
2022-09-12T08:54:21.164Z,20.00
2022-09-12T08:59:25.675Z,20.30
2022-09-12T09:04:46.609Z,20.50
2022-09-12T09:10:10.143Z,20.70
2022-09-12T09:15:33.842Z,20.90
2022-09-12T09:20:43.615Z,21.10
2022-09-12T09:25:54.123Z,21.30
2022-09-12T09:30:59.106Z,21.40
2022-09-12T09:36:09.176Z,21.60
2022-09-12T09:41:23.846Z,21.80
2022-09-12T09:46:28.951Z,22.00
2022-09-12T09:51:36.943Z,22.20
2022-09-12T09:56:42.397Z,22.40
2022-09-12T10:01:49.140Z,22.70
2022-09-12T10:06:54.315Z,22.80
2022-09-12T10:11:58.656Z,23.00
2022-09-12T10:17:04.296Z,23.20
2022-09-12T10:22:08.448Z,23.50
2022-09-12T10:27:16.909Z,23.60
2022-09-12T10:32:31.333Z,23.70
2022-09-12T10:37:36.679Z,23.90
2022-09-12T10:42:49.261Z,24.00
2022-09-12T10:47:54.682Z,24.20
2022-09-12T10:53:15.648Z,24.30
2022-09-12T10:58:44.404Z,24.50
2022-09-12T11:04:20.073Z,24.70
2022-09-12T11:09:27.920Z,24.90
2022-09-12T11:14:47.604Z,25.00
2022-09-12T11:20:16.880Z,25.10
2022-09-12T11:25:32.163Z,25.30
2022-09-12T11:30:41.704Z,25.50
2022-09-12T11:35:54.586Z,25.60
2022-09-12T11:41:02.351Z,25.70
2022-09-12T11:46:15.626Z,25.90
2022-09-12T11:51:22.013Z,26.00
2022-09-12T11:56:25.455Z,26.20
2022-09-12T12:01:35.371Z,26.30
2022-09-12T12:06:50.768Z,26.40
2022-09-12T12:11:57.992Z,26.50
2022-09-12T12:17:01.452Z,26.60
2022-09-12T12:22:16.477Z,26.60
2022-09-12T12:27:26.488Z,26.50
2022-09-12T12:32:29.810Z,26.40
2022-09-12T12:38:05.024Z,26.30
2022-09-12T12:43:31.857Z,26.30
2022-09-12T12:48:57.234Z,26.30
2022-09-12T12:54:03.656Z,26.40
2022-09-12T12:59:17.015Z,26.50
2022-09-12T13:04:22.623Z,26.60
2022-09-12T13:09:32.016Z,26.60
2022-09-12T13:14:51.554Z,26.60
2022-09-12T13:20:26.693Z,26.60
2022-09-12T13:25:33.266Z,26.70
2022-09-12T13:30:38.106Z,26.80
2022-09-12T13:35:50.401Z,26.90
2022-09-12T13:41:11.659Z,27.00
2022-09-12T13:46:17.635Z,27.00
2022-09-12T13:51:25.292Z,27.00
2022-09-12T13:56:29.892Z,27.00
2022-09-12T14:01:40.144Z,27.00
2022-09-12T14:06:50.007Z,27.10
2022-09-12T14:11:55.770Z,27.20
2022-09-12T14:16:59.241Z,27.30
2022-09-12T14:22:02.279Z,27.50
2022-09-12T14:27:07.259Z,27.50
2022-09-12T14:32:23.011Z,27.60
2022-09-12T14:37:26.390Z,27.60
2022-09-12T14:42:33.241Z,27.70
2022-09-12T14:47:40.858Z,27.70
2022-09-12T14:52:44.824Z,27.80
2022-09-12T14:57:50.457Z,27.90
2022-09-12T15:02:54.522Z,28.00
2022-09-12T15:08:02.080Z,28.10
2022-09-12T15:13:14.193Z,28.00
2022-09-12T15:18:18.207Z,28.00
2022-09-12T15:23:35.396Z,27.90
2022-09-12T15:28:39.669Z,27.90
2022-09-12T15:33:42.575Z,27.80
2022-09-12T15:38:46.209Z,27.60
2022-09-12T15:43:51.109Z,27.60
2022-09-12T15:48:54.014Z,27.50
2022-09-12T15:53:56.922Z,27.50
2022-09-12T15:59:01.170Z,27.40
2022-09-12T16:04:04.604Z,27.40
2022-09-12T16:09:07.587Z,27.40
2022-09-12T16:14:15.493Z,27.30
2022-09-12T16:19:18.433Z,27.20
2022-09-12T16:24:21.527Z,27.10
2022-09-12T16:29:25.798Z,27.00
2022-09-12T16:34:28.720Z,27.00
2022-09-12T16:39:31.618Z,26.80
2022-09-12T16:44:35.869Z,26.80
2022-09-12T16:49:38.748Z,26.80
2022-09-12T16:54:41.679Z,26.70
2022-09-12T16:59:45.934Z,26.60
2022-09-12T17:04:48.858Z,26.50
2022-09-12T17:09:52.011Z,26.40
2022-09-12T17:14:56.239Z,26.20
2022-09-12T17:19:59.130Z,26.10
2022-09-12T17:25:02.030Z,25.90
2022-09-12T17:30:07.644Z,25.80
2022-09-12T17:35:10.979Z,25.70
2022-09-12T17:40:13.990Z,25.60
2022-09-12T17:45:18.729Z,25.50
2022-09-12T17:50:31.813Z,25.40
2022-09-12T17:55:36.390Z,25.30
2022-09-12T18:00:58.435Z,25.20
2022-09-12T18:06:01.463Z,25.00
2022-09-12T18:11:05.724Z,24.80
2022-09-12T18:16:12.276Z,24.50
2022-09-12T18:21:15.290Z,24.40
2022-09-12T18:26:18.428Z,24.20
2022-09-12T18:31:24.560Z,24.00
2022-09-12T18:36:28.011Z,23.80
2022-09-12T18:41:31.016Z,23.70
2022-09-12T18:46:36.423Z,23.60
2022-09-12T18:51:41.716Z,23.50
2022-09-12T18:56:45.738Z,23.30
2022-09-12T19:01:50.283Z,23.20
2022-09-12T19:06:53.231Z,23.20
2022-09-12T19:11:56.157Z,23.00
2022-09-12T19:17:00.415Z,22.90
2022-09-12T19:22:04.337Z,22.80
2022-09-12T19:27:07.683Z,22.60
2022-09-12T19:32:11.936Z,22.50
2022-09-12T19:37:14.819Z,22.40
2022-09-12T19:42:17.664Z,22.30
2022-09-12T19:47:22.250Z,22.20
2022-09-12T19:52:25.183Z,22.10
2022-09-12T19:57:28.053Z,22.00
2022-09-12T20:02:32.322Z,21.90
2022-09-12T20:07:35.201Z,21.80
2022-09-12T20:12:39.849Z,21.80
2022-09-12T20:17:44.174Z,21.60
2022-09-12T20:22:51.320Z,21.60
2022-09-12T20:27:59.437Z,21.40
2022-09-12T20:33:04.378Z,21.30
2022-09-12T20:38:07.280Z,21.20
2022-09-12T20:43:10.157Z,21.10
2022-09-12T20:48:14.374Z,21.00
2022-09-12T20:53:17.419Z,20.90
2022-09-12T20:58:21.456Z,20.90
2022-09-12T21:03:26.364Z,20.80
2022-09-12T21:08:29.341Z,20.70
2022-09-12T21:13:32.444Z,20.60
2022-09-12T21:18:37.326Z,20.60
2022-09-12T21:23:41.394Z,20.50
2022-09-12T21:28:44.488Z,20.40
2022-09-12T21:33:48.910Z,20.40
2022-09-12T21:38:51.933Z,20.30
2022-09-12T21:43:54.828Z,20.20
2022-09-12T21:48:59.053Z,20.20
2022-09-12T21:54:01.924Z,20.10
2022-09-12T21:59:05.049Z,20.00
2022-09-12T22:04:10.556Z,20.00
2022-09-12T22:09:14.054Z,19.90
2022-09-12T22:14:17.581Z,19.70
2022-09-12T22:19:21.858Z,19.60
2022-09-12T22:24:30.771Z,19.50
2022-09-12T22:29:34.306Z,19.30
2022-09-12T22:34:38.588Z,19.30
2022-09-12T22:39:41.722Z,19.20
2022-09-12T22:44:44.628Z,19.20
2022-09-12T22:49:48.875Z,19.10
2022-09-12T22:54:51.849Z,19.00
2022-09-12T22:59:54.741Z,19.00
2022-09-12T23:04:59.087Z,18.90
2022-09-12T23:10:01.963Z,18.80
2022-09-12T23:15:05.801Z,18.80
2022-09-12T23:20:10.674Z,18.70
2022-09-12T23:25:13.754Z,18.70
2022-09-12T23:30:17.748Z,18.70
2022-09-12T23:35:21.960Z,18.60
2022-09-12T23:40:24.884Z,18.60
2022-09-12T23:45:27.813Z,18.60
2022-09-12T23:50:32.056Z,18.50
2022-09-12T23:55:34.910Z,18.50
